Kezdőlap
METAR-TAF:

METAR-TAF

Repülőterek :

Pardubice, Csehország

földrajzi szélesség: 50-00-48N, földrajzi hosszúság: 15-44-19E, magasság: 226 m

Jelenlegi meteorológiai megfigyelések

A jelentés 48 perccel ezelõtt készült, 22:00 UTC
Különbözõ irányokból fújó szél 1 kt
Hőmérséklet -6°C
Páratartalom 86%
Légköri nyomás 1021 hPa
Látótávolság 10 km, vagy több
felhőtlen 1500 m magasságban, és nincs gomolyfelhõ

METAR: LKPD 182200Z VRB01KT CAVOK M06/M08 Q1021 RMK BLU

Idő: 23:48 (22:48 UTC)

Előrejelzés

A jelentés 5 órával és 48 perccel ezelõtt készült, 17:00 UTC
Az előrejelzés 18-én 18 óra UTC és 19-én 18 óra UTC között érvényes
Különbözõ irányokból fújó szél 2 kt
Látótávolság 10 km, vagy több
felhőtlen 1500 m magasságban, és nincs gomolyfelhõ
19-én 08 óra UTC és 19-én 10 óra UTC között fokozatosan kialakuló
Keleti szél 4 kt

TAF: LKPD 181700Z 1818/1918 VRB02KT CAVOK BECMG 1908/1910 09004KT

Meteorológiai megfigyelések és előrejelzések több, mint 4000 repülőtéren (METAR és TAF jelentéseket).

A térképen piros és sárga pontok jelzik az elérhető meteorológiai állomásokat.

Mozgassa az egeret a pont fölött, hogy megjelenjen az állomás neve.

Azután kattintson az időjárási megfigyelések és előrejelzések megtekintéséhez.

A térkép megváltoztatása: kattintson a fekete keresztel jelölt zöld gombra ráközelítéshez, a vonallal jelölt zöld gombra távolításhoz, vagy a zöld nyilakra a szomszédos térképek eléréséhez.


METAR-TAF: